地図

経路データ

SID SEASON NUMBER BASIN SUBBASIN NAME ISO_TIME NATURE LAT LON WMO_WIND WMO_PRES WMO_AGENCY TRACK_TYPE DIST2LAND LANDFALL IFLAG USA_AGENCY USA_ATCF_ID USA_LAT USA_LON USA_RECORD USA_STATUS USA_WIND USA_PRES USA_SSHS USA_R34_NE USA_R34_SE USA_R34_SW USA_R34_NW USA_R50_NE USA_R50_SE USA_R50_SW USA_R50_NW USA_R64_NE USA_R64_SE USA_R64_SW USA_R64_NW USA_POCI USA_ROCI USA_RMW USA_EYE TOKYO_LAT TOKYO_LON TOKYO_GRADE TOKYO_WIND TOKYO_PRES TOKYO_R50_DIR TOKYO_R50_LONG TOKYO_R50_SHORT TOKYO_R30_DIR TOKYO_R30_LONG TOKYO_R30_SHORT TOKYO_LAND CMA_LAT CMA_LON CMA_CAT CMA_WIND CMA_PRES HKO_LAT HKO_LON HKO_CAT HKO_WIND HKO_PRES NEWDELHI_LAT NEWDELHI_LON NEWDELHI_GRADE NEWDELHI_WIND NEWDELHI_PRES NEWDELHI_CI NEWDELHI_DP NEWDELHI_POCI REUNION_LAT REUNION_LON REUNION_TYPE REUNION_WIND REUNION_PRES REUNION_TNUM REUNION_CI REUNION_RMW REUNION_R34_NE REUNION_R34_SE REUNION_R34_SW REUNION_R34_NW REUNION_R50_NE REUNION_R50_SE REUNION_R50_SW REUNION_R50_NW REUNION_R64_NE REUNION_R64_SE REUNION_R64_SW REUNION_R64_NW BOM_LAT BOM_LON BOM_TYPE BOM_WIND BOM_PRES BOM_TNUM BOM_CI BOM_RMW BOM_R34_NE BOM_R34_SE BOM_R34_SW BOM_R34_NW BOM_R50_NE BOM_R50_SE BOM_R50_SW BOM_R50_NW BOM_R64_NE BOM_R64_SE BOM_R64_SW BOM_R64_NW BOM_ROCI BOM_POCI BOM_EYE BOM_POS_METHOD BOM_PRES_METHOD NADI_LAT NADI_LON NADI_CAT NADI_WIND NADI_PRES WELLINGTON_LAT WELLINGTON_LON WELLINGTON_WIND WELLINGTON_PRES DS824_LAT DS824_LON DS824_STAGE DS824_WIND DS824_PRES TD9636_LAT TD9636_LON TD9636_STAGE TD9636_WIND TD9636_PRES TD9635_LAT TD9635_LON TD9635_WIND TD9635_PRES TD9635_ROCI NEUMANN_LAT NEUMANN_LON NEUMANN_CLASS NEUMANN_WIND NEUMANN_PRES MLC_LAT MLC_LON MLC_CLASS MLC_WIND MLC_PRES USA_GUST BOM_GUST BOM_GUST_PER REUNION_GUST REUNION_GUST_PER USA_SEAHGT USA_SEARAD_NE USA_SEARAD_SE USA_SEARAD_SW USA_SEARAD_NW STORM_SPEED STORM_DIR
1890224N24087 1890 23 NI BB NOT_NAMED 1890-08-12 00:00:00 TS 23.5000 86.5000 main 0 0 _________O____ -1 23.5000 86.5000 TC 30 4 280
1890224N24087 1890 23 NI BB NOT_NAMED 1890-08-12 03:00:00 TS 23.5334 86.3000 main 0 0 _________PO___ -1 23.5501 86.2000 TC 30 23.5000 86.5000 1 4 281
1890224N24087 1890 23 NI BB NOT_NAMED 1890-08-12 06:00:00 TS 23.5821 86.0195 main 0 0 _________OP___ -1 23.6000 85.9000 TC 30 23.5552 86.1986 1 5 281
1890224N24087 1890 23 NI BB NOT_NAMED 1890-08-12 09:00:00 TS 23.6320 85.7276 main 0 0 _________PP___ -1 23.6499 85.6000 TC 30 23.6080 85.8977 1 5 280
1890224N24087 1890 23 NI BB NOT_NAMED 1890-08-12 12:00:00 TS 23.6784 85.4490 main 0 0 _________OP___ -1 23.7000 85.3000 TC 30 23.6569 85.5979 1 5 280
1890224N24087 1890 23 NI BB NOT_NAMED 1890-08-12 15:00:00 TS 23.7287 85.1500 main 0 0 _________PO___ -1 23.7574 85.0000 TC 30 23.7000 85.3000 1 6 279
1890224N24087 1890 23 NI BB NOT_NAMED 1890-08-12 18:00:00 TS 23.7680 84.8520 main 0 0 _________OP___ -1 23.8000 84.7000 TC 30 23.7360 85.0040 1 5 276
1890224N24087 1890 23 NI BB NOT_NAMED 1890-08-12 21:00:00 TS 23.7861 84.5537 main 0 0 _________PP___ -1 23.8074 84.3999 TC 30 23.7647 84.7075 1 5 273
1890224N24087 1890 23 NI BB NOT_NAMED 1890-08-13 00:00:00 TS 23.7930 84.2536 main 0 0 _________OP___ -1 23.8000 84.1000 TC 30 23.7860 84.4072 1 5 271
1890224N24087 1890 23 NI BB NOT_NAMED 1890-08-13 03:00:00 TS 23.7999 83.9538 main 0 0 _________PO___ -1 23.7999 83.8075 TC 30 23.8000 84.1000 1 6 270
1890224N24087 1890 23 NI BB NOT_NAMED 1890-08-13 06:00:00 TS 23.7954 83.6409 main 0 0 _________OP___ -1 23.8000 83.5000 TC 30 23.7908 83.7818 1 6 269
1890224N24087 1890 23 NI BB NOT_NAMED 1890-08-13 09:00:00 TS 23.7849 83.3072 main 0 0 _________PP___ -1 23.7925 83.1574 TC 30 23.7773 83.4569 1 6 269
1890224N24087 1890 23 NI BB NOT_NAMED 1890-08-13 12:00:00 TS 23.7876 82.9643 main 0 0 _________OP___ -1 23.8000 82.8000 TC 30 23.7752 83.1286 1 6 273
1890224N24087 1890 23 NI BB NOT_NAMED 1890-08-13 15:00:00 TS 23.8137 82.6212 main 0 0 _________PO___ -1 23.8275 82.4424 TC 30 23.8000 82.8000 1 6 278
1890224N24087 1890 23 NI BB NOT_NAMED 1890-08-13 18:00:00 TS 23.8775 82.2774 main 0 0 _________OP___ -1 23.9000 82.1000 TC 30 23.8551 82.4548 1 6 285
1890224N24087 1890 23 NI BB NOT_NAMED 1890-08-13 21:00:00 TS 23.9838 81.9451 main 0 0 _________PP___ -1 24.0275 81.7775 TC 30 23.9401 82.1126 1 6 293
1890224N24087 1890 23 NI BB NOT_NAMED 1890-08-14 00:00:00 TS 24.1276 81.6445 main 0 0 _________OP___ -1 24.2000 81.5000 TC 30 24.0551 81.7891 1 6 302
1890224N24087 1890 23 NI BB NOT_NAMED 1890-08-14 03:00:00 TS 24.2962 81.3925 main 0 0 _________PO___ -1 24.3924 81.2849 TC 30 24.2000 81.5000 1 6 310
1890224N24087 1890 23 NI BB NOT_NAMED 1890-08-14 06:00:00 TS 24.4835 81.1759 main 0 0 _________OP___ -1 24.6000 81.1000 TC 30 24.3669 81.2519 1 5 315
1890224N24087 1890 23 NI BB NOT_NAMED 1890-08-14 09:00:00 TS 24.6811 80.9662 main 0 0 _________PP___ -1 24.8000 80.8925 TC 30 24.5622 81.0400 1 5 318
1890224N24087 1890 23 NI BB NOT_NAMED 1890-08-14 12:00:00 TS 24.8882 80.7790 main 0 0 _________OP___ -1 25.0000 80.7000 TC 30 24.7764 80.8581 1 5 323
1890224N24087 1890 23 NI BB NOT_NAMED 1890-08-14 15:00:00 TS 25.0962 80.6175 main 0 0 _________PO___ -1 25.1925 80.5349 TC 30 25.0000 80.7000 1 5 328
1890224N24087 1890 23 NI BB NOT_NAMED 1890-08-14 18:00:00 TS 25.3001 80.4913 main 0 0 _________OP___ -1 25.4000 80.4000 TC 30 25.2251 80.5598 1 5 333
1890224N24087 1890 23 NI BB NOT_NAMED 1890-08-14 21:00:00 TS 25.5261 80.3767 main 0 0 _________PP___ -1 25.6400 80.2926 TC 30 25.4501 80.4327 1 5 337
1890224N24087 1890 23 NI BB NOT_NAMED 1890-08-15 00:00:00 TS 25.7501 80.2762 main 0 0 _________OP___ -1 25.9000 80.2000 TC 30 25.6751 80.3143 1 4 337
1890224N24087 1890 23 NI BB NOT_NAMED 1890-08-15 03:00:00 NR 25.9000 80.2000 main 0 __________O___ -1 TC 25.9000 80.2000 1 3 337

IBTrACS Databaseについて

本データベースは、米国NOAAが公開する1842年以降の世界の熱帯低気圧のベストトラックデータアーカイブInternational Best Track Archive for Climate Stewardship (IBTrACS)を、ウェブで閲覧しやすい形式に変換したものです。

最終更新日:2021-12-08